sensor_id;sensor_type;location;lat;lon;timestamp;pressure;altitude;pressure_sealevel;temperature;humidity
9462;BME280;4769;42.660;23.262;2023-04-08T00:00:31;94059.78;;;6.30;78.41
9462;BME280;4769;42.660;23.262;2023-04-08T00:03:00;94056.56;;;6.10;79.54
9462;BME280;4769;42.660;23.262;2023-04-08T00:05:25;94061.47;;;6.00;79.75
9462;BME280;4769;42.660;23.262;2023-04-08T00:07:51;94063.66;;;5.72;80.44
9462;BME280;4769;42.660;23.262;2023-04-08T00:10:17;94052.31;;;5.53;81.73
9462;BME280;4769;42.660;23.262;2023-04-08T00:12:43;94066.03;;;5.49;82.16
9462;BME280;4769;42.660;23.262;2023-04-08T00:15:09;94054.56;;;5.43;82.55
9462;BME280;4769;42.660;23.262;2023-04-08T00:17:35;94052.97;;;5.42;82.86
9462;BME280;4769;42.660;23.262;2023-04-08T00:20:04;94055.50;;;5.62;82.25
9462;BME280;4769;42.660;23.262;2023-04-08T00:22:30;94055.84;;;5.65;81.95
9462;BME280;4769;42.660;23.262;2023-04-08T00:24:56;94056.75;;;5.77;81.57
9462;BME280;4769;42.660;23.262;2023-04-08T00:27:22;94049.28;;;5.87;81.25
9462;BME280;4769;42.660;23.262;2023-04-08T00:29:48;94050.03;;;5.94;81.14
9462;BME280;4769;42.660;23.262;2023-04-08T00:32:13;94052.38;;;6.02;80.88
9462;BME280;4769;42.660;23.262;2023-04-08T00:34:39;94050.28;;;6.11;80.69
9462;BME280;4769;42.660;23.262;2023-04-08T00:37:07;94051.63;;;6.20;80.61
9462;BME280;4769;42.660;23.262;2023-04-08T00:39:33;94050.59;;;6.21;80.41
9462;BME280;4769;42.660;23.262;2023-04-08T00:41:59;94040.34;;;6.19;80.09
9462;BME280;4769;42.660;23.262;2023-04-08T00:44:25;94047.72;;;6.29;79.81
9462;BME280;4769;42.660;23.262;2023-04-08T00:46:50;94047.34;;;6.25;80.10
9462;BME280;4769;42.660;23.262;2023-04-08T00:49:16;94049.16;;;6.25;80.04
9462;BME280;4769;42.660;23.262;2023-04-08T00:51:42;94050.19;;;6.24;79.79
9462;BME280;4769;42.660;23.262;2023-04-08T00:54:10;94048.34;;;6.06;80.73
9462;BME280;4769;42.660;23.262;2023-04-08T00:56:36;94046.38;;;6.20;80.75
9462;BME280;4769;42.660;23.262;2023-04-08T00:59:02;94054.75;;;6.28;80.68
9462;BME280;4769;42.660;23.262;2023-04-08T01:01:33;94057.63;;;6.27;81.58
9462;BME280;4769;42.660;23.262;2023-04-08T01:04:05;94051.78;;;6.25;82.08
9462;BME280;4769;42.660;23.262;2023-04-08T01:06:37;94043.34;;;6.23;81.48
9462;BME280;4769;42.660;23.262;2023-04-08T01:09:05;94058.75;;;6.31;81.54
9462;BME280;4769;42.660;23.262;2023-04-08T01:11:35;94064.25;;;6.29;81.69
9462;BME280;4769;42.660;23.262;2023-04-08T01:14:04;94065.38;;;6.33;81.48
9462;BME280;4769;42.660;23.262;2023-04-08T01:16:31;94061.31;;;6.37;81.41
9462;BME280;4769;42.660;23.262;2023-04-08T01:18:57;94067.78;;;6.35;80.96
9462;BME280;4769;42.660;23.262;2023-04-08T01:21:23;94072.63;;;6.38;81.26
9462;BME280;4769;42.660;23.262;2023-04-08T01:23:58;94066.28;;;6.45;80.95
9462;BME280;4769;42.660;23.262;2023-04-08T01:26:27;94060.25;;;6.45;81.01
9462;BME280;4769;42.660;23.262;2023-04-08T01:28:56;94059.47;;;6.44;81.15
9462;BME280;4769;42.660;23.262;2023-04-08T01:31:23;94065.66;;;6.50;81.13
9462;BME280;4769;42.660;23.262;2023-04-08T01:33:50;94053.88;;;6.41;81.14
9462;BME280;4769;42.660;23.262;2023-04-08T01:36:16;94059.25;;;6.46;80.63
9462;BME280;4769;42.660;23.262;2023-04-08T01:38:45;94062.84;;;6.45;80.54
9462;BME280;4769;42.660;23.262;2023-04-08T01:41:11;94059.03;;;6.47;80.32
9462;BME280;4769;42.660;23.262;2023-04-08T01:43:40;94064.50;;;6.46;80.44
9462;BME280;4769;42.660;23.262;2023-04-08T01:46:09;94064.28;;;6.47;80.25
9462;BME280;4769;42.660;23.262;2023-04-08T01:48:37;94059.66;;;6.43;80.24
9462;BME280;4769;42.660;23.262;2023-04-08T01:51:03;94052.84;;;6.42;80.36
9462;BME280;4769;42.660;23.262;2023-04-08T01:53:29;94068.19;;;6.38;82.03
9462;BME280;4769;42.660;23.262;2023-04-08T01:56:05;94062.19;;;6.31;82.57
9462;BME280;4769;42.660;23.262;2023-04-08T01:58:36;94068.94;;;6.21;83.37
9462;BME280;4769;42.660;23.262;2023-04-08T02:01:09;94083.84;;;6.20;83.69
9462;BME280;4769;42.660;23.262;2023-04-08T02:03:36;94069.22;;;6.13;83.29
9462;BME280;4769;42.660;23.262;2023-04-08T02:06:02;94087.19;;;6.03;82.97
9462;BME280;4769;42.660;23.262;2023-04-08T02:08:28;94083.56;;;5.73;84.33
9462;BME280;4769;42.660;23.262;2023-04-08T02:10:53;94089.25;;;5.63;84.99
9462;BME280;4769;42.660;23.262;2023-04-08T02:13:19;94092.69;;;5.64;84.79
9462;BME280;4769;42.660;23.262;2023-04-08T02:15:50;94093.44;;;5.71;84.80
9462;BME280;4769;42.660;23.262;2023-04-08T02:18:23;94094.91;;;5.60;84.82
9462;BME280;4769;42.660;23.262;2023-04-08T02:20:54;94096.59;;;5.48;85.09
9462;BME280;4769;42.660;23.262;2023-04-08T02:23:24;94086.56;;;5.45;85.74
9462;BME280;4769;42.660;23.262;2023-04-08T02:25:55;94090.41;;;5.43;85.72
9462;BME280;4769;42.660;23.262;2023-04-08T02:28:21;94089.91;;;5.59;85.28
9462;BME280;4769;42.660;23.262;2023-04-08T02:30:49;94094.22;;;5.71;85.00
9462;BME280;4769;42.660;23.262;2023-04-08T02:33:20;94099.22;;;5.86;84.26
9462;BME280;4769;42.660;23.262;2023-04-08T02:35:47;94093.13;;;5.92;84.01
9462;BME280;4769;42.660;23.262;2023-04-08T02:38:13;94086.03;;;5.99;83.81
9462;BME280;4769;42.660;23.262;2023-04-08T02:40:39;94096.19;;;6.13;82.04
9462;BME280;4769;42.660;23.262;2023-04-08T02:43:05;94080.41;;;5.95;81.92
9462;BME280;4769;42.660;23.262;2023-04-08T02:45:32;94097.09;;;6.01;82.10
9462;BME280;4769;42.660;23.262;2023-04-08T02:48:00;94089.41;;;6.06;82.38
9462;BME280;4769;42.660;23.262;2023-04-08T02:50:28;94077.31;;;6.05;82.55
9462;BME280;4769;42.660;23.262;2023-04-08T02:52:54;94090.22;;;6.06;82.77
9462;BME280;4769;42.660;23.262;2023-04-08T02:55:20;94073.31;;;6.02;82.45
9462;BME280;4769;42.660;23.262;2023-04-08T02:57:46;94086.19;;;6.04;82.61
9462;BME280;4769;42.660;23.262;2023-04-08T03:00:13;94091.59;;;6.09;82.89
9462;BME280;4769;42.660;23.262;2023-04-08T03:02:39;94090.88;;;5.95;83.72
9462;BME280;4769;42.660;23.262;2023-04-08T03:05:06;94087.53;;;5.88;84.18
9462;BME280;4769;42.660;23.262;2023-04-08T03:07:34;94098.72;;;5.95;84.63
9462;BME280;4769;42.660;23.262;2023-04-08T03:10:00;94090.88;;;5.95;84.64
9462;BME280;4769;42.660;23.262;2023-04-08T03:12:26;94087.03;;;5.98;84.61
9462;BME280;4769;42.660;23.262;2023-04-08T03:14:52;94087.19;;;6.03;84.21
9462;BME280;4769;42.660;23.262;2023-04-08T03:17:18;94092.25;;;5.98;84.36
9462;BME280;4769;42.660;23.262;2023-04-08T03:19:43;94078.06;;;5.87;84.28
9462;BME280;4769;42.660;23.262;2023-04-08T03:22:09;94091.47;;;5.97;84.27
9462;BME280;4769;42.660;23.262;2023-04-08T03:24:37;94088.66;;;5.99;83.75
9462;BME280;4769;42.660;23.262;2023-04-08T03:27:03;94088.22;;;6.02;83.35
9462;BME280;4769;42.660;23.262;2023-04-08T03:29:29;94077.78;;;5.95;83.25
9462;BME280;4769;42.660;23.262;2023-04-08T03:31:55;94094.44;;;6.07;83.27
9462;BME280;4769;42.660;23.262;2023-04-08T03:34:20;94085.81;;;6.00;83.02
9462;BME280;4769;42.660;23.262;2023-04-08T03:36:46;94089.41;;;6.06;83.29
9462;BME280;4769;42.660;23.262;2023-04-08T03:39:12;94100.84;;;6.11;82.97
9462;BME280;4769;42.660;23.262;2023-04-08T03:41:40;94088.53;;;6.12;82.83
9462;BME280;4769;42.660;23.262;2023-04-08T03:44:06;94092.34;;;6.16;82.77
9462;BME280;4769;42.660;23.262;2023-04-08T03:46:31;94090.53;;;6.16;82.96
9462;BME280;4769;42.660;23.262;2023-04-08T03:48:57;94089.72;;;6.16;82.80
9462;BME280;4769;42.660;23.262;2023-04-08T03:51:23;94092.69;;;6.19;82.52
9462;BME280;4769;42.660;23.262;2023-04-08T03:53:48;94086.31;;;6.15;82.46
9462;BME280;4769;42.660;23.262;2023-04-08T03:56:14;94082.03;;;6.21;82.37
9462;BME280;4769;42.660;23.262;2023-04-08T03:58:42;94089.66;;;6.22;82.38
9462;BME280;4769;42.660;23.262;2023-04-08T04:01:08;94091.91;;;6.19;82.51
9462;BME280;4769;42.660;23.262;2023-04-08T04:03:34;94095.72;;;6.23;82.50
9462;BME280;4769;42.660;23.262;2023-04-08T04:05:59;94090.47;;;6.23;82.53
9462;BME280;4769;42.660;23.262;2023-04-08T04:08:25;94088.63;;;6.23;82.48
9462;BME280;4769;42.660;23.262;2023-04-08T04:10:51;94087.25;;;6.21;82.44
9462;BME280;4769;42.660;23.262;2023-04-08T04:13:17;94090.03;;;6.26;81.85
9462;BME280;4769;42.660;23.262;2023-04-08T04:15:45;94089.09;;;6.20;81.89
9462;BME280;4769;42.660;23.262;2023-04-08T04:18:11;94087.91;;;6.16;81.88
9462;BME280;4769;42.660;23.262;2023-04-08T04:20:38;94088.69;;;6.17;81.84
9462;BME280;4769;42.660;23.262;2023-04-08T04:23:04;94099.00;;;6.12;82.24
9462;BME280;4769;42.660;23.262;2023-04-08T04:25:30;94093.66;;;6.00;82.38
9462;BME280;4769;42.660;23.262;2023-04-08T04:27:56;94103.72;;;6.03;82.68
9462;BME280;4769;42.660;23.262;2023-04-08T04:30:22;94106.31;;;6.03;82.83
9462;BME280;4769;42.660;23.262;2023-04-08T04:32:50;94106.31;;;6.03;83.78
9462;BME280;4769;42.660;23.262;2023-04-08T04:35:16;94107.88;;;6.11;84.13
9462;BME280;4769;42.660;23.262;2023-04-08T04:37:42;94112.53;;;6.09;85.20
9462;BME280;4769;42.660;23.262;2023-04-08T04:40:08;94107.47;;;6.14;84.90
9462;BME280;4769;42.660;23.262;2023-04-08T04:42:33;94102.47;;;6.06;85.29
9462;BME280;4769;42.660;23.262;2023-04-08T04:44:59;94109.31;;;6.07;85.59
9462;BME280;4769;42.660;23.262;2023-04-08T04:47:25;94111.78;;;6.02;85.25
9462;BME280;4769;42.660;23.262;2023-04-08T04:49:53;94099.97;;;5.93;85.63
9462;BME280;4769;42.660;23.262;2023-04-08T04:52:19;94107.50;;;6.07;85.13
9462;BME280;4769;42.660;23.262;2023-04-08T04:54:45;94109.72;;;6.10;84.74
9462;BME280;4769;42.660;23.262;2023-04-08T04:57:10;94112.03;;;6.18;84.60
9462;BME280;4769;42.660;23.262;2023-04-08T04:59:36;94098.34;;;6.23;84.08
9462;BME280;4769;42.660;23.262;2023-04-08T05:02:02;94104.09;;;6.31;83.81
9462;BME280;4769;42.660;23.262;2023-04-08T05:04:28;94103.50;;;6.29;83.01
9462;BME280;4769;42.660;23.262;2023-04-08T05:06:58;94105.47;;;6.34;82.93
9462;BME280;4769;42.660;23.262;2023-04-08T05:09:23;94110.75;;;6.52;83.00
9462;BME280;4769;42.660;23.262;2023-04-08T05:11:49;94108.44;;;6.62;83.07
9462;BME280;4769;42.660;23.262;2023-04-08T05:14:17;94123.84;;;6.76;82.23
9462;BME280;4769;42.660;23.262;2023-04-08T05:16:43;94105.75;;;6.68;80.93
9462;BME280;4769;42.660;23.262;2023-04-08T05:19:11;94098.72;;;6.69;80.78
9462;BME280;4769;42.660;23.262;2023-04-08T05:21:37;94108.41;;;6.86;80.39
9462;BME280;4769;42.660;23.262;2023-04-08T05:24:06;94107.09;;;6.77;80.01
9462;BME280;4769;42.660;23.262;2023-04-08T05:26:32;94110.81;;;6.88;80.02
9462;BME280;4769;42.660;23.262;2023-04-08T05:28:58;94109.44;;;7.03;79.72
9462;BME280;4769;42.660;23.262;2023-04-08T05:31:23;94100.69;;;7.09;79.48
9462;BME280;4769;42.660;23.262;2023-04-08T05:33:49;94109.19;;;7.23;78.67
9462;BME280;4769;42.660;23.262;2023-04-08T05:36:15;94113.41;;;7.42;77.84
9462;BME280;4769;42.660;23.262;2023-04-08T05:38:41;94116.88;;;7.54;77.61
9462;BME280;4769;42.660;23.262;2023-04-08T05:41:09;94117.47;;;7.56;77.08
9462;BME280;4769;42.660;23.262;2023-04-08T05:43:35;94106.63;;;7.52;76.63
9462;BME280;4769;42.660;23.262;2023-04-08T05:46:05;94109.72;;;7.61;76.33
9462;BME280;4769;42.660;23.262;2023-04-08T05:50:56;94107.78;;;7.56;75.63
9462;BME280;4769;42.660;23.262;2023-04-08T05:53:22;94117.91;;;7.53;76.91
9462;BME280;4769;42.660;23.262;2023-04-08T05:55:47;94112.38;;;7.72;76.14
9462;BME280;4769;42.660;23.262;2023-04-08T05:58:16;94104.91;;;7.76;76.14
9462;BME280;4769;42.660;23.262;2023-04-08T06:00:42;94104.00;;;7.82;76.02
9462;BME280;4769;42.660;23.262;2023-04-08T06:03:07;94110.97;;;7.88;75.20
9462;BME280;4769;42.660;23.262;2023-04-08T06:05:36;94109.50;;;7.92;75.04
9462;BME280;4769;42.660;23.262;2023-04-08T06:08:02;94098.69;;;8.00;75.01
9462;BME280;4769;42.660;23.262;2023-04-08T06:10:28;94112.50;;;8.07;74.80
9462;BME280;4769;42.660;23.262;2023-04-08T06:12:53;94096.75;;;8.07;74.80
9462;BME280;4769;42.660;23.262;2023-04-08T06:15:22;94108.38;;;8.29;74.27
9462;BME280;4769;42.660;23.262;2023-04-08T06:17:48;94099.94;;;8.38;74.10
9462;BME280;4769;42.660;23.262;2023-04-08T06:20:13;94093.75;;;8.44;72.80
9462;BME280;4769;42.660;23.262;2023-04-08T06:22:39;94098.69;;;8.64;72.22
9462;BME280;4769;42.660;23.262;2023-04-08T06:25:05;94108.63;;;8.85;71.22
9462;BME280;4769;42.660;23.262;2023-04-08T06:27:31;94100.28;;;8.99;70.55
9462;BME280;4769;42.660;23.262;2023-04-08T06:29:57;94109.50;;;9.13;69.92
9462;BME280;4769;42.660;23.262;2023-04-08T06:32:26;94108.78;;;9.29;69.50
9462;BME280;4769;42.660;23.262;2023-04-08T06:34:52;94106.28;;;9.23;68.48
9462;BME280;4769;42.660;23.262;2023-04-08T06:37:18;94102.25;;;9.32;68.53
9462;BME280;4769;42.660;23.262;2023-04-08T06:39:43;94119.75;;;9.38;68.52
9462;BME280;4769;42.660;23.262;2023-04-08T06:42:09;94106.31;;;9.51;67.74
9462;BME280;4769;42.660;23.262;2023-04-08T06:44:35;94106.41;;;9.56;67.68
9462;BME280;4769;42.660;23.262;2023-04-08T06:47:01;94119.44;;;9.62;67.29
9462;BME280;4769;42.660;23.262;2023-04-08T06:49:29;94118.09;;;9.60;67.32
9462;BME280;4769;42.660;23.262;2023-04-08T06:51:55;94111.59;;;9.51;67.35
9462;BME280;4769;42.660;23.262;2023-04-08T06:54:20;94116.38;;;9.14;68.16
9462;BME280;4769;42.660;23.262;2023-04-08T06:56:46;94114.53;;;9.15;69.17
9462;BME280;4769;42.660;23.262;2023-04-08T06:59:12;94115.22;;;9.22;69.04
9462;BME280;4769;42.660;23.262;2023-04-08T07:01:38;94107.66;;;9.25;68.91
9462;BME280;4769;42.660;23.262;2023-04-08T07:04:03;94116.44;;;9.42;68.43
9462;BME280;4769;42.660;23.262;2023-04-08T07:06:32;94118.44;;;9.52;68.15
9462;BME280;4769;42.660;23.262;2023-04-08T07:08:59;94113.63;;;9.60;67.64
9462;BME280;4769;42.660;23.262;2023-04-08T07:11:25;94111.41;;;9.69;67.20
9462;BME280;4769;42.660;23.262;2023-04-08T07:13:51;94112.66;;;9.78;66.85
9462;BME280;4769;42.660;23.262;2023-04-08T07:16:17;94123.53;;;9.70;66.64
9462;BME280;4769;42.660;23.262;2023-04-08T07:18:42;94111.69;;;9.56;66.56
9462;BME280;4769;42.660;23.262;2023-04-08T07:21:08;94121.03;;;9.63;66.67
9462;BME280;4769;42.660;23.262;2023-04-08T07:23:36;94124.78;;;9.79;66.85
9462;BME280;4769;42.660;23.262;2023-04-08T07:26:02;94127.34;;;9.90;65.89
9462;BME280;4769;42.660;23.262;2023-04-08T07:28:28;94125.84;;;10.06;65.40
9462;BME280;4769;42.660;23.262;2023-04-08T07:30:54;94126.00;;;10.16;65.21
9462;BME280;4769;42.660;23.262;2023-04-08T07:33:20;94132.03;;;10.28;64.49
9462;BME280;4769;42.660;23.262;2023-04-08T07:35:45;94129.22;;;10.18;64.12
9462;BME280;4769;42.660;23.262;2023-04-08T07:38:11;94131.06;;;10.34;63.92
9462;BME280;4769;42.660;23.262;2023-04-08T07:43:35;94143.97;;;10.63;63.46
9462;BME280;4769;42.660;23.262;2023-04-08T07:46:00;94133.94;;;10.82;62.82
9462;BME280;4769;42.660;23.262;2023-04-08T07:48:26;94145.69;;;11.07;62.46
9462;BME280;4769;42.660;23.262;2023-04-08T07:50:52;94147.19;;;11.03;62.48
9462;BME280;4769;42.660;23.262;2023-04-08T07:53:17;94153.06;;;11.05;62.36
9462;BME280;4769;42.660;23.262;2023-04-08T07:55:43;94161.19;;;11.04;62.21
9462;BME280;4769;42.660;23.262;2023-04-08T07:58:09;94153.13;;;11.10;62.20
9462;BME280;4769;42.660;23.262;2023-04-08T08:00:37;94155.66;;;11.22;62.29
9462;BME280;4769;42.660;23.262;2023-04-08T08:03:03;94156.06;;;11.14;61.91
9462;BME280;4769;42.660;23.262;2023-04-08T08:05:29;94149.53;;;11.00;62.43
9462;BME280;4769;42.660;23.262;2023-04-08T08:07:54;94156.53;;;11.27;62.15
9462;BME280;4769;42.660;23.262;2023-04-08T08:10:20;94142.78;;;11.47;61.23
9462;BME280;4769;42.660;23.262;2023-04-08T08:12:46;94144.88;;;11.61;61.00
9462;BME280;4769;42.660;23.262;2023-04-08T08:15:12;94157.06;;;11.89;60.05
9462;BME280;4769;42.660;23.262;2023-04-08T08:17:40;94158.00;;;11.99;59.70
9462;BME280;4769;42.660;23.262;2023-04-08T08:20:07;94152.72;;;11.99;59.71
9462;BME280;4769;42.660;23.262;2023-04-08T08:22:33;94164.25;;;12.15;58.84
9462;BME280;4769;42.660;23.262;2023-04-08T08:24:58;94147.25;;;11.84;58.74
9462;BME280;4769;42.660;23.262;2023-04-08T08:27:24;94154.50;;;11.94;59.12
9462;BME280;4769;42.660;23.262;2023-04-08T08:29:50;94154.13;;;11.85;59.48
9462;BME280;4769;42.660;23.262;2023-04-08T08:32:16;94154.00;;;11.97;59.46
9462;BME280;4769;42.660;23.262;2023-04-08T08:34:45;94157.19;;;12.20;58.59
9462;BME280;4769;42.660;23.262;2023-04-08T08:37:11;94159.06;;;12.25;58.32
9462;BME280;4769;42.660;23.262;2023-04-08T08:39:40;94157.56;;;12.34;58.73
9462;BME280;4769;42.660;23.262;2023-04-08T08:42:05;94150.84;;;12.48;58.52
9462;BME280;4769;42.660;23.262;2023-04-08T08:44:31;94150.06;;;12.52;57.64
9462;BME280;4769;42.660;23.262;2023-04-08T08:46:57;94157.66;;;12.44;58.19
9462;BME280;4769;42.660;23.262;2023-04-08T08:49:23;94153.28;;;12.28;58.94
9462;BME280;4769;42.660;23.262;2023-04-08T08:51:52;94151.81;;;12.37;59.13
9462;BME280;4769;42.660;23.262;2023-04-08T08:54:19;94157.97;;;12.47;59.19
9462;BME280;4769;42.660;23.262;2023-04-08T08:56:45;94158.31;;;12.56;59.23
9462;BME280;4769;42.660;23.262;2023-04-08T08:59:10;94156.91;;;12.75;58.54
9462;BME280;4769;42.660;23.262;2023-04-08T09:01:37;94150.03;;;13.05;57.97
9462;BME280;4769;42.660;23.262;2023-04-08T09:04:21;94150.97;;;13.26;57.11
9462;BME280;4769;42.660;23.262;2023-04-08T09:06:48;94147.97;;;13.59;56.29
9462;BME280;4769;42.660;23.262;2023-04-08T09:09:17;94159.78;;;13.93;54.47
9462;BME280;4769;42.660;23.262;2023-04-08T09:11:44;94149.59;;;14.27;51.87
9462;BME280;4769;42.660;23.262;2023-04-08T09:14:17;94147.22;;;14.50;51.51
9462;BME280;4769;42.660;23.262;2023-04-08T09:16:44;94151.00;;;14.74;50.48
9462;BME280;4769;42.660;23.262;2023-04-08T09:19:10;94153.91;;;14.73;50.62
9462;BME280;4769;42.660;23.262;2023-04-08T09:21:36;94148.59;;;14.83;50.26
9462;BME280;4769;42.660;23.262;2023-04-08T09:24:02;94137.47;;;14.91;50.52
9462;BME280;4769;42.660;23.262;2023-04-08T09:26:31;94136.63;;;15.15;50.42
9462;BME280;4769;42.660;23.262;2023-04-08T09:28:58;94141.66;;;15.27;49.19
9462;BME280;4769;42.660;23.262;2023-04-08T09:31:26;94136.13;;;14.73;49.93
9462;BME280;4769;42.660;23.262;2023-04-08T09:33:53;94127.34;;;15.13;48.46
9462;BME280;4769;42.660;23.262;2023-04-08T09:36:19;94132.16;;;14.96;48.75
9462;BME280;4769;42.660;23.262;2023-04-08T09:38:45;94140.75;;;14.11;51.62
9462;BME280;4769;42.660;23.262;2023-04-08T09:41:12;94140.84;;;14.31;51.86
9462;BME280;4769;42.660;23.262;2023-04-08T09:43:43;94142.44;;;14.32;52.23
9462;BME280;4769;42.660;23.262;2023-04-08T09:46:10;94134.50;;;14.32;52.29
9462;BME280;4769;42.660;23.262;2023-04-08T09:48:43;94129.22;;;14.47;51.54
9462;BME280;4769;42.660;23.262;2023-04-08T09:51:12;94117.03;;;14.61;51.36
9462;BME280;4769;42.660;23.262;2023-04-08T09:53:45;94114.38;;;14.66;51.08
9462;BME280;4769;42.660;23.262;2023-04-08T09:56:13;94127.38;;;14.98;50.10
9462;BME280;4769;42.660;23.262;2023-04-08T09:58:48;94115.66;;;15.19;49.27
9462;BME280;4769;42.660;23.262;2023-04-08T10:01:21;94112.66;;;15.65;47.58
9462;BME280;4769;42.660;23.262;2023-04-08T10:03:52;94111.34;;;15.58;47.06
9462;BME280;4769;42.660;23.262;2023-04-08T10:06:19;94107.09;;;15.62;46.48
9462;BME280;4769;42.660;23.262;2023-04-08T10:08:46;94110.06;;;15.50;45.81
9462;BME280;4769;42.660;23.262;2023-04-08T10:11:13;94111.69;;;14.96;47.66
9462;BME280;4769;42.660;23.262;2023-04-08T10:13:40;94109.03;;;14.91;48.76
9462;BME280;4769;42.660;23.262;2023-04-08T10:16:23;94107.38;;;15.55;47.55
9462;BME280;4769;42.660;23.262;2023-04-08T10:18:49;94105.22;;;15.67;46.29
9462;BME280;4769;42.660;23.262;2023-04-08T10:21:33;94106.88;;;15.53;46.57
9462;BME280;4769;42.660;23.262;2023-04-08T10:23:59;94100.81;;;15.03;47.93
9462;BME280;4769;42.660;23.262;2023-04-08T10:26:36;94111.72;;;14.61;48.87
9462;BME280;4769;42.660;23.262;2023-04-08T10:32:00;94117.97;;;14.15;52.10
9462;BME280;4769;42.660;23.262;2023-04-08T10:34:26;94110.06;;;13.58;53.80
9462;BME280;4769;42.660;23.262;2023-04-08T10:36:53;94110.06;;;13.53;54.18
9462;BME280;4769;42.660;23.262;2023-04-08T10:39:20;94109.00;;;13.54;55.10
9462;BME280;4769;42.660;23.262;2023-04-08T10:41:47;94098.84;;;14.03;53.95
9462;BME280;4769;42.660;23.262;2023-04-08T10:44:16;94095.72;;;14.21;52.84
9462;BME280;4769;42.660;23.262;2023-04-08T10:46:42;94086.88;;;13.95;52.99
9462;BME280;4769;42.660;23.262;2023-04-08T10:49:11;94079.56;;;13.46;54.93
9462;BME280;4769;42.660;23.262;2023-04-08T10:51:37;94078.34;;;13.73;55.08
9462;BME280;4769;42.660;23.262;2023-04-08T10:54:06;94080.50;;;13.81;53.91
9462;BME280;4769;42.660;23.262;2023-04-08T10:56:32;94080.00;;;13.89;54.26
9462;BME280;4769;42.660;23.262;2023-04-08T10:58:58;94081.16;;;14.24;53.60
9462;BME280;4769;42.660;23.262;2023-04-08T11:01:23;94078.00;;;14.37;52.86
9462;BME280;4769;42.660;23.262;2023-04-08T11:03:49;94065.53;;;14.52;52.46
9462;BME280;4769;42.660;23.262;2023-04-08T11:06:18;94072.44;;;14.43;52.22
9462;BME280;4769;42.660;23.262;2023-04-08T11:08:44;94068.16;;;14.27;52.42
9462;BME280;4769;42.660;23.262;2023-04-08T11:11:10;94054.66;;;14.49;51.86
9462;BME280;4769;42.660;23.262;2023-04-08T11:13:38;94055.69;;;14.48;52.16
9462;BME280;4769;42.660;23.262;2023-04-08T11:16:06;94053.03;;;14.88;51.25
9462;BME280;4769;42.660;23.262;2023-04-08T11:18:33;94034.00;;;15.59;48.94
9462;BME280;4769;42.660;23.262;2023-04-08T11:20:59;94035.38;;;15.52;48.60
9462;BME280;4769;42.660;23.262;2023-04-08T11:23:27;94045.09;;;14.83;50.64
9462;BME280;4769;42.660;23.262;2023-04-08T11:25:53;94036.28;;;14.92;50.27
9462;BME280;4769;42.660;23.262;2023-04-08T11:28:19;94038.44;;;14.95;49.90
9462;BME280;4769;42.660;23.262;2023-04-08T11:30:45;94038.31;;;15.45;48.44
9462;BME280;4769;42.660;23.262;2023-04-08T11:33:14;94025.84;;;15.41;47.95
9462;BME280;4769;42.660;23.262;2023-04-08T11:35:40;94030.91;;;15.37;48.07
9462;BME280;4769;42.660;23.262;2023-04-08T11:38:07;94022.34;;;15.55;47.00
9462;BME280;4769;42.660;23.262;2023-04-08T11:40:35;94023.50;;;15.19;47.69
9462;BME280;4769;42.660;23.262;2023-04-08T11:43:08;94012.72;;;16.13;46.21
9462;BME280;4769;42.660;23.262;2023-04-08T11:45:37;94010.13;;;16.75;44.84
9462;BME280;4769;42.660;23.262;2023-04-08T11:48:08;94004.69;;;16.56;43.12
9462;BME280;4769;42.660;23.262;2023-04-08T11:50:34;94003.53;;;15.42;45.35
9462;BME280;4769;42.660;23.262;2023-04-08T11:52:59;93997.84;;;14.75;46.10
9462;BME280;4769;42.660;23.262;2023-04-08T11:55:26;94003.97;;;14.25;47.27
9462;BME280;4769;42.660;23.262;2023-04-08T11:57:55;94005.22;;;13.77;49.11
9462;BME280;4769;42.660;23.262;2023-04-08T12:00:22;93998.28;;;13.61;50.39
9462;BME280;4769;42.660;23.262;2023-04-08T12:02:48;93991.91;;;13.47;50.79
9462;BME280;4769;42.660;23.262;2023-04-08T12:05:14;93996.13;;;12.92;52.07
9462;BME280;4769;42.660;23.262;2023-04-08T12:07:40;93984.13;;;13.21;51.59
9462;BME280;4769;42.660;23.262;2023-04-08T12:10:07;93985.78;;;13.47;51.48
9462;BME280;4769;42.660;23.262;2023-04-08T12:12:33;93977.09;;;13.61;51.33
9462;BME280;4769;42.660;23.262;2023-04-08T12:15:01;93968.06;;;13.42;51.57
9462;BME280;4769;42.660;23.262;2023-04-08T12:17:27;93983.22;;;13.67;51.62
9462;BME280;4769;42.660;23.262;2023-04-08T12:19:55;93978.22;;;13.90;51.55
9462;BME280;4769;42.660;23.262;2023-04-08T12:22:20;93985.78;;;13.47;51.91
9462;BME280;4769;42.660;23.262;2023-04-08T12:24:46;93976.59;;;13.64;51.34
9462;BME280;4769;42.660;23.262;2023-04-08T12:27:12;93974.13;;;13.38;52.27
9462;BME280;4769;42.660;23.262;2023-04-08T12:29:38;93986.03;;;13.40;51.56
9462;BME280;4769;42.660;23.262;2023-04-08T12:32:06;93979.59;;;13.16;52.31
9462;BME280;4769;42.660;23.262;2023-04-08T12:34:31;93977.34;;;12.93;52.48
9462;BME280;4769;42.660;23.262;2023-04-08T12:36:57;93977.91;;;12.95;53.09
9462;BME280;4769;42.660;23.262;2023-04-08T12:39:23;93963.19;;;12.68;53.64
9462;BME280;4769;42.660;23.262;2023-04-08T12:41:49;93970.00;;;12.54;53.64
9462;BME280;4769;42.660;23.262;2023-04-08T12:44:14;93968.16;;;12.54;53.96
9462;BME280;4769;42.660;23.262;2023-04-08T12:46:40;93979.44;;;12.45;55.29
9462;BME280;4769;42.660;23.262;2023-04-08T12:49:08;93990.44;;;12.63;55.07
9462;BME280;4769;42.660;23.262;2023-04-08T12:51:34;93984.69;;;12.76;56.14
9462;BME280;4769;42.660;23.262;2023-04-08T12:54:00;93999.63;;;12.56;57.29
9462;BME280;4769;42.660;23.262;2023-04-08T12:56:26;94001.44;;;12.14;60.90
9462;BME280;4769;42.660;23.262;2023-04-08T12:58:51;94006.84;;;12.29;61.63
9462;BME280;4769;42.660;23.262;2023-04-08T13:01:17;94014.16;;;12.53;61.87
9462;BME280;4769;42.660;23.262;2023-04-08T13:03:43;94006.06;;;12.70;61.74
9462;BME280;4769;42.660;23.262;2023-04-08T13:06:12;93998.56;;;13.70;59.99
9462;BME280;4769;42.660;23.262;2023-04-08T13:08:40;94001.88;;;14.47;60.68
9462;BME280;4769;42.660;23.262;2023-04-08T13:11:06;93997.50;;;15.06;58.86
9462;BME280;4769;42.660;23.262;2023-04-08T13:13:32;93989.59;;;14.86;57.50
9462;BME280;4769;42.660;23.262;2023-04-08T13:15:58;93983.78;;;14.64;56.91
9462;BME280;4769;42.660;23.262;2023-04-08T13:18:23;93987.00;;;14.21;58.25
9462;BME280;4769;42.660;23.262;2023-04-08T13:20:49;93990.63;;;13.80;58.43
9462;BME280;4769;42.660;23.262;2023-04-08T13:23:18;93981.91;;;13.69;57.97